Time;durP1;ratioP1;P1;durP2;ratioP2;P2;SDS_P1;SDS_P2;PMS_P1;PMS_P2;Temp;Humidity;BMP_temperature;BMP_pressure;BME280_temperature;BME280_humidity;BME280_pressure;Samples;Min_cycle;Max_cycle;Signal;HPM_P1;HPM_P2
2022/04/22 00:00:19;;;;;;;4.57;2.93;;;9.00;99.90;;;;;;5062677;28;20202;-55
2022/04/22 00:03:08;;;;;;;4.13;2.47;;;9.00;99.90;;;;;;5064120;28;20291;-59
2022/04/22 00:05:52;;;;;;;5.43;2.57;;;9.00;99.90;;;;;;5063707;28;20226;-59
2022/04/22 00:08:37;;;;;;;4.20;2.73;;;9.00;99.90;;;;;;5063502;28;20249;-58
2022/04/22 00:11:30;;;;;;;5.17;2.97;;;9.00;99.90;;;;;;5063800;28;20252;-52
2022/04/22 00:14:15;;;;;;;4.67;2.70;;;8.90;99.90;;;;;;5063987;28;20248;-58
2022/04/22 00:17:00;;;;;;;3.43;2.00;;;8.80;99.90;;;;;;5061902;28;20201;-58
2022/04/22 00:19:45;;;;;;;3.80;2.67;;;8.80;99.90;;;;;;5064431;28;20209;-59
2022/04/22 00:22:29;;;;;;;5.10;2.90;;;8.80;99.90;;;;;;5062821;28;20197;-57
2022/04/22 00:25:14;;;;;;;5.47;3.00;;;8.80;99.90;;;;;;5062166;28;20256;-51
2022/04/22 00:28:00;;;;;;;7.33;3.37;;;8.70;99.90;;;;;;5063969;28;20201;-60
2022/04/22 00:30:44;;;;;;;5.37;2.67;;;8.70;99.90;;;;;;5062286;28;20225;-58
2022/04/22 00:33:29;;;;;;;4.73;2.40;;;8.70;99.90;;;;;;5063023;28;20197;-53
2022/04/22 00:36:14;;;;;;;3.13;2.07;;;8.70;99.90;;;;;;5063301;28;20328;-60
2022/04/22 00:38:58;;;;;;;3.50;2.60;;;8.60;99.90;;;;;;5062138;28;20267;-54
2022/04/22 00:41:43;;;;;;;6.90;2.90;;;8.60;99.90;;;;;;5063190;28;20232;-60
2022/04/22 00:44:27;;;;;;;3.93;2.13;;;8.60;99.90;;;;;;5062003;28;20198;-59
2022/04/22 00:47:11;;;;;;;2.33;1.80;;;8.50;99.90;;;;;;5061818;28;20193;-59
2022/04/22 00:49:56;;;;;;;3.63;1.50;;;8.60;99.90;;;;;;5063472;28;20214;-57
2022/04/22 00:52:41;;;;;;;3.73;2.97;;;8.50;99.90;;;;;;5062692;28;20198;-52
2022/04/22 00:55:27;;;;;;;3.23;2.20;;;8.50;99.90;;;;;;5062282;28;20205;-53
2022/04/22 00:58:12;;;;;;;2.87;2.27;;;8.50;99.90;;;;;;5064050;28;20196;-55
2022/04/22 01:00:58;;;;;;;3.63;2.50;;;8.50;99.90;;;;;;5061886;28;20201;-57
2022/04/22 01:13:30;;;;;;;5.97;3.00;;;8.40;99.90;;;;;;5062548;28;20188;-58
2022/04/22 01:16:16;;;;;;;5.43;2.70;;;8.40;99.90;;;;;;5063942;28;20194;-56
2022/04/22 01:19:01;;;;;;;5.97;3.13;;;8.30;99.90;;;;;;5062830;28;20220;-58
2022/04/22 01:21:45;;;;;;;5.23;2.77;;;8.20;99.90;;;;;;5062089;28;20189;-55
2022/04/22 01:24:31;;;;;;;3.40;3.10;;;8.30;99.90;;;;;;5064393;28;20269;-56
2022/04/22 01:27:16;;;;;;;2.40;2.10;;;8.20;99.90;;;;;;5062460;28;20203;-55
2022/04/22 01:30:03;;;;;;;4.20;2.40;;;8.30;99.90;;;;;;5062158;28;20271;-56
2022/04/22 01:32:50;;;;;;;5.00;3.27;;;8.30;99.90;;;;;;5063903;28;20243;-53
2022/04/22 01:35:35;;;;;;;3.80;2.77;;;8.20;99.90;;;;;;5062548;28;20205;-60
2022/04/22 01:38:19;;;;;;;4.17;2.80;;;8.20;99.90;;;;;;5062899;28;20190;-47
2022/04/22 01:41:04;;;;;;;3.30;2.10;;;8.20;99.90;;;;;;5063141;28;20193;-49
2022/04/22 01:43:49;;;;;;;3.87;2.20;;;8.30;99.90;;;;;;5062274;28;20209;-54
2022/04/22 01:46:33;;;;;;;5.63;3.10;;;8.30;99.90;;;;;;5063387;28;20244;-56
2022/04/22 01:49:18;;;;;;;10.17;3.50;;;8.30;99.90;;;;;;5062518;28;20229;-51
2022/04/22 01:52:02;;;;;;;3.00;2.47;;;8.30;99.90;;;;;;5061896;28;20197;-56
2022/04/22 01:54:50;;;;;;;4.63;2.77;;;8.20;99.90;;;;;;5063560;28;20194;-56
2022/04/22 01:57:34;;;;;;;3.43;2.47;;;8.10;99.90;;;;;;5062574;28;20194;-54
2022/04/22 02:00:19;;;;;;;5.50;2.23;;;8.10;99.90;;;;;;5061956;28;20201;-47
2022/04/22 02:03:03;;;;;;;3.60;2.27;;;8.10;99.90;;;;;;5063366;28;20244;-53
2022/04/22 02:05:48;;;;;;;3.97;2.93;;;8.00;99.90;;;;;;5061582;28;20260;-59
2022/04/22 02:08:33;;;;;;;6.03;3.23;;;8.00;99.90;;;;;;5062685;28;20198;-55
2022/04/22 02:11:17;;;;;;;7.23;4.10;;;8.00;99.90;;;;;;5063240;28;20277;-63
2022/04/22 02:14:01;;;;;;;4.30;2.43;;;8.00;99.90;;;;;;5062501;28;20265;-54
2022/04/22 02:16:47;;;;;;;8.50;2.83;;;7.90;99.90;;;;;;5067336;28;20291;-50
2022/04/22 02:19:32;;;;;;;2.23;1.83;;;7.80;99.90;;;;;;5067018;28;20216;-60
2022/04/22 02:22:18;;;;;;;3.93;2.50;;;7.80;99.90;;;;;;5065852;28;20189;-51
2022/04/22 02:25:03;;;;;;;6.63;2.57;;;7.80;99.90;;;;;;5067139;28;20274;-60
2022/04/22 02:30:50;;;;;;;3.73;2.33;;;7.60;99.90;;;;;;5065926;28;20241;-48
2022/04/22 02:33:36;;;;;;;3.83;2.50;;;7.60;99.90;;;;;;5066589;28;20281;-58
2022/04/22 02:36:21;;;;;;;2.43;2.23;;;7.70;99.90;;;;;;5066401;28;20209;-58
2022/04/22 02:39:05;;;;;;;3.40;2.23;;;7.60;99.90;;;;;;5066264;28;20379;-57
2022/04/22 02:47:56;;;;;;;4.47;2.43;;;7.60;99.90;;;;;;5065994;28;20271;-50
2022/04/22 02:50:41;;;;;;;3.83;3.07;;;7.60;99.90;;;;;;5066477;28;20301;-51
2022/04/22 02:53:27;;;;;;;5.30;3.50;;;7.60;99.90;;;;;;5065461;28;20328;-59
2022/04/22 02:56:12;;;;;;;2.87;2.07;;;7.60;99.90;;;;;;5065220;28;20328;-54
2022/04/22 02:58:57;;;;;;;4.73;2.83;;;7.50;99.90;;;;;;5066260;28;20228;-55
2022/04/22 03:01:43;;;;;;;3.33;2.70;;;7.50;99.90;;;;;;5064460;28;20181;-57
2022/04/22 03:04:27;;;;;;;4.43;2.10;;;7.50;99.90;;;;;;5065597;28;20252;-56
2022/04/22 03:07:11;;;;;;;9.87;2.67;;;7.50;99.90;;;;;;5066048;28;20197;-51
2022/04/22 03:09:57;;;;;;;4.07;2.23;;;7.50;99.90;;;;;;5063902;28;20283;-50
2022/04/22 03:12:41;;;;;;;3.53;2.47;;;7.50;99.90;;;;;;5066137;28;20262;-53
2022/04/22 03:15:26;;;;;;;2.80;2.60;;;7.50;99.90;;;;;;5064666;28;20228;-55
2022/04/22 03:18:12;;;;;;;3.90;2.57;;;7.50;99.90;;;;;;5064878;28;20255;-52
2022/04/22 03:20:57;;;;;;;5.83;2.53;;;7.50;99.90;;;;;;5066159;28;20196;-51
2022/04/22 03:23:42;;;;;;;2.90;2.43;;;7.50;99.90;;;;;;5065257;28;20223;-52
2022/04/22 03:26:26;;;;;;;4.60;2.30;;;7.60;99.90;;;;;;5064192;28;20327;-54
2022/04/22 03:29:10;;;;;;;5.40;2.63;;;7.60;99.90;;;;;;5065256;28;20233;-49
2022/04/22 03:31:55;;;;;;;4.23;2.90;;;7.50;99.90;;;;;;5063972;28;20213;-52
2022/04/22 03:34:39;;;;;;;3.33;2.17;;;7.50;99.90;;;;;;5064772;28;20213;-53
2022/04/22 03:37:24;;;;;;;4.10;2.73;;;7.50;99.90;;;;;;5064912;28;20240;-49
2022/04/22 03:40:10;;;;;;;2.23;1.97;;;7.40;99.90;;;;;;5063057;28;20197;-60
2022/04/22 03:42:56;;;;;;;5.33;2.87;;;7.40;99.90;;;;;;5065529;28;20197;-48
2022/04/22 03:45:40;;;;;;;5.00;2.90;;;7.30;99.90;;;;;;5064219;28;20197;-60
2022/04/22 03:48:25;;;;;;;3.53;2.70;;;7.30;99.90;;;;;;5063426;28;20193;-55
2022/04/22 03:51:09;;;;;;;2.60;2.40;;;7.30;99.90;;;;;;5065320;28;20221;-53
2022/04/22 03:53:54;;;;;;;4.53;2.53;;;7.30;99.90;;;;;;5063933;28;20201;-59
2022/04/22 03:59:41;;;;;;;4.10;2.17;;;7.20;99.90;;;;;;5066374;28;20229;-56
2022/04/22 04:02:26;;;;;;;4.30;2.77;;;7.20;99.90;;;;;;5064047;28;20299;-59
2022/04/22 04:05:10;;;;;;;5.63;2.87;;;7.20;99.90;;;;;;5063542;28;20257;-57
2022/04/22 04:07:55;;;;;;;7.30;2.83;;;7.30;99.90;;;;;;5065105;28;20193;-57
2022/04/22 04:16:39;;;;;;;5.53;3.67;;;7.30;99.90;;;;;;5065986;28;20282;-57
2022/04/22 04:25:32;;;;;;;4.83;3.30;;;7.30;99.90;;;;;;5066142;28;20201;-51
2022/04/22 04:28:17;;;;;;;3.50;2.27;;;7.30;99.90;;;;;;5063460;28;20197;-61
2022/04/22 04:31:03;;;;;;;3.90;2.07;;;7.30;99.90;;;;;;5063262;28;20217;-47
2022/04/22 04:33:51;;;;;;;4.50;2.30;;;7.30;99.90;;;;;;5063887;28;20666;-51
2022/04/22 04:36:35;;;;;;;5.10;3.13;;;7.30;99.90;;;;;;5063521;28;20201;-59
2022/04/22 04:39:20;;;;;;;4.63;2.90;;;7.20;99.90;;;;;;5064507;28;20200;-53
2022/04/22 04:42:04;;;;;;;3.10;2.37;;;7.20;99.90;;;;;;5063326;28;20211;-60
2022/04/22 04:44:50;;;;;;;3.97;2.50;;;7.30;99.90;;;;;;5062515;28;20295;-57
2022/04/22 04:47:41;;;;;;;7.83;2.90;;;7.30;99.90;;;;;;5069160;28;20185;-58
2022/04/22 04:50:27;;;;;;;5.27;2.73;;;7.30;99.90;;;;;;5080288;28;20228;-60
2022/04/22 04:53:12;;;;;;;5.60;2.47;;;7.30;99.90;;;;;;5080895;28;20196;-55
2022/04/22 04:55:57;;;;;;;4.07;2.40;;;7.30;99.90;;;;;;5084450;28;20238;-55
2022/04/22 04:58:43;;;;;;;6.77;2.87;;;7.30;99.90;;;;;;5082791;28;20256;-61
2022/04/22 05:01:27;;;;;;;3.07;2.40;;;7.30;99.90;;;;;;5080677;28;20212;-57
2022/04/22 05:04:12;;;;;;;6.03;3.27;;;7.40;99.90;;;;;;5081882;28;20250;-49
2022/04/22 05:06:57;;;;;;;5.67;2.80;;;7.40;99.90;;;;;;5081449;28;20252;-60
2022/04/22 05:09:41;;;;;;;2.90;2.37;;;7.40;99.90;;;;;;5082739;28;20239;-58
2022/04/22 05:12:26;;;;;;;7.47;3.60;;;7.50;99.90;;;;;;5082249;28;20197;-52
2022/04/22 05:15:11;;;;;;;2.90;2.33;;;7.50;99.90;;;;;;5079376;28;20214;-51
2022/04/22 05:17:58;;;;;;;4.00;3.07;;;7.50;99.90;;;;;;5083324;28;20228;-53
2022/04/22 05:20:43;;;;;;;4.83;2.50;;;7.60;99.90;;;;;;5081766;28;20294;-63
2022/04/22 05:23:27;;;;;;;5.97;3.30;;;7.60;99.90;;;;;;5079494;28;20193;-62
2022/04/22 05:26:12;;;;;;;5.33;2.70;;;7.60;99.90;;;;;;5082055;28;20189;-59
2022/04/22 05:28:56;;;;;;;4.13;2.63;;;7.70;99.90;;;;;;5080852;28;20228;-55
2022/04/22 05:34:45;;;;;;;4.17;2.27;;;7.80;99.90;;;;;;5076098;28;20243;-50
2022/04/22 05:37:52;;;;;;;4.47;2.80;;;7.80;99.90;;;;;;5079892;28;20268;-65
2022/04/22 05:40:38;;;;;;;4.00;2.47;;;7.90;99.90;;;;;;5079685;28;20234;-47
2022/04/22 05:43:24;;;;;;;5.03;2.87;;;7.90;99.90;;;;;;5082704;28;20201;-59
2022/04/22 05:46:09;;;;;;;3.70;2.33;;;7.90;99.90;;;;;;5081164;28;20243;-47
2022/04/22 05:48:53;;;;;;;5.70;2.93;;;8.00;99.90;;;;;;5072019;28;20185;-57
2022/04/22 05:51:37;;;;;;;4.90;2.70;;;8.00;99.90;;;;;;5086515;28;20255;-56
2022/04/22 05:54:22;;;;;;;3.53;2.70;;;8.10;99.90;;;;;;5082951;28;20225;-52
2022/04/22 05:57:07;;;;;;;3.87;2.77;;;8.10;99.90;;;;;;5086166;28;20200;-64
2022/04/22 05:59:51;;;;;;;4.77;3.30;;;8.20;99.90;;;;;;5086556;28;20222;-60
2022/04/22 06:02:35;;;;;;;3.63;2.87;;;8.10;99.90;;;;;;5082404;28;20205;-60
2022/04/22 06:05:21;;;;;;;3.30;2.27;;;8.10;99.90;;;;;;5086501;28;20287;-46
2022/04/22 06:11:10;;;;;;;5.30;3.13;;;8.40;99.90;;;;;;5085189;28;20219;-48
2022/04/22 06:13:55;;;;;;;5.97;3.20;;;8.40;99.90;;;;;;5083818;28;20274;-56
2022/04/22 06:16:41;;;;;;;5.07;2.80;;;8.50;99.90;;;;;;5085112;28;20200;-57
2022/04/22 06:19:25;;;;;;;4.87;3.30;;;8.60;99.90;;;;;;5080177;28;20282;-52
2022/04/22 06:22:09;;;;;;;5.30;2.77;;;8.70;99.90;;;;;;5084753;28;20189;-57
2022/04/22 06:24:55;;;;;;;4.27;2.50;;;8.80;99.90;;;;;;5084429;28;20196;-60
2022/04/22 06:27:45;;;;;;;6.13;3.57;;;8.70;99.90;;;;;;5084428;28;20224;-60
2022/04/22 06:30:30;;;;;;;6.33;3.13;;;8.70;99.90;;;;;;5085242;28;20278;-61
2022/04/22 06:33:16;;;;;;;5.53;2.93;;;8.70;99.90;;;;;;5079340;28;20188;-54
2022/04/22 06:36:03;;;;;;;4.77;3.43;;;8.80;99.90;;;;;;5084521;28;20189;-59
2022/04/22 06:38:47;;;;;;;4.77;2.87;;;8.90;99.90;;;;;;5083825;28;20712;-55
2022/04/22 06:47:39;;;;;;;5.03;2.90;;;9.10;99.90;;;;;;5080859;28;20261;-48
2022/04/22 06:50:23;;;;;;;3.23;2.90;;;9.30;99.90;;;;;;5079205;28;20248;-48
2022/04/22 06:53:09;;;;;;;5.23;2.90;;;9.50;99.90;;;;;;5084469;28;20192;-54
2022/04/22 06:55:58;;;;;;;6.57;3.37;;;9.40;99.90;;;;;;5083949;28;20276;-46
2022/04/22 06:58:43;;;;;;;3.77;2.97;;;9.50;99.90;;;;;;5079324;28;20192;-48
2022/04/22 07:01:27;;;;;;;5.57;3.43;;;9.60;99.90;;;;;;5083856;28;20236;-52
2022/04/22 07:04:13;;;;;;;4.53;3.60;;;9.60;99.90;;;;;;5083421;28;20204;-52
2022/04/22 07:06:57;;;;;;;5.43;3.07;;;9.60;99.90;;;;;;5077909;28;20201;-52
2022/04/22 07:09:41;;;;;;;7.00;3.77;;;9.80;99.90;;;;;;5084725;28;20493;-58
2022/04/22 07:12:27;;;;;;;6.37;3.53;;;10.00;99.90;;;;;;5083505;28;20254;-55
2022/04/22 07:15:12;;;;;;;5.40;3.57;;;10.20;99.90;;;;;;5079383;28;20240;-61
2022/04/22 07:17:57;;;;;;;6.00;3.43;;;10.20;99.90;;;;;;5080573;28;20193;-53
2022/04/22 07:20:42;;;;;;;4.57;2.93;;;10.40;99.90;;;;;;5082268;28;20247;-53
2022/04/22 07:23:26;;;;;;;6.37;2.87;;;10.50;99.90;;;;;;5084167;28;20271;-49
2022/04/22 07:26:11;;;;;;;4.97;3.60;;;10.70;99.90;;;;;;5083886;28;20185;-60
2022/04/22 07:28:57;;;;;;;5.37;3.70;;;10.90;99.90;;;;;;5078596;28;20238;-47
2022/04/22 07:31:42;;;;;;;5.57;4.13;;;11.20;99.90;;;;;;5084071;28;20291;-52
2022/04/22 07:34:26;;;;;;;7.57;4.40;;;11.50;99.90;;;;;;5081958;28;20285;-50
2022/04/22 07:37:12;;;;;;;6.77;4.10;;;11.70;99.90;;;;;;5077153;28;20243;-61
2022/04/22 07:39:57;;;;;;;5.50;3.57;;;11.70;99.90;;;;;;5083743;28;20189;-51
2022/04/22 07:48:56;;;;;;;4.70;3.80;;;12.50;99.80;;;;;;5077791;28;20283;-54
2022/04/22 07:51:40;;;;;;;6.37;3.70;;;12.50;99.30;;;;;;5079420;28;20224;-51
2022/04/22 07:54:25;;;;;;;5.50;3.63;;;12.60;99.30;;;;;;5077992;28;20251;-47
2022/04/22 07:57:10;;;;;;;6.50;3.80;;;12.50;99.40;;;;;;5077241;28;20268;-50
2022/04/22 07:59:55;;;;;;;6.63;3.97;;;12.70;99.10;;;;;;5080863;28;20266;-61
2022/04/22 08:02:41;;;;;;;5.27;4.17;;;12.80;99.30;;;;;;5081629;28;20189;-49
2022/04/22 08:05:25;;;;;;;4.17;3.70;;;12.90;98.90;;;;;;5081453;28;20224;-56
2022/04/22 08:08:10;;;;;;;5.73;3.70;;;13.30;98.40;;;;;;5077442;28;20596;-60
2022/04/22 08:10:55;;;;;;;4.03;3.50;;;13.30;97.90;;;;;;5079777;28;20220;-67
2022/04/22 08:13:41;;;;;;;7.20;4.17;;;13.40;97.90;;;;;;5080771;28;20207;-48
2022/04/22 08:16:26;;;;;;;6.30;3.50;;;13.40;97.30;;;;;;5080610;28;20200;-61
2022/04/22 08:19:11;;;;;;;4.43;3.77;;;13.40;97.00;;;;;;5080913;28;20243;-56
2022/04/22 08:21:56;;;;;;;4.63;3.40;;;13.20;97.20;;;;;;5080283;28;20255;-61
2022/04/22 08:24:40;;;;;;;6.63;3.63;;;13.50;97.20;;;;;;5078617;28;20225;-52
2022/04/22 08:27:26;;;;;;;4.13;3.40;;;13.90;96.50;;;;;;5076564;28;20266;-47
2022/04/22 08:30:10;;;;;;;3.60;3.30;;;14.30;96.00;;;;;;5078353;28;20229;-55
2022/04/22 08:32:55;;;;;;;5.23;3.50;;;14.10;96.00;;;;;;5080243;28;20196;-64
2022/04/22 08:35:39;;;;;;;5.30;4.13;;;14.10;96.10;;;;;;5082056;28;20197;-46
2022/04/22 08:38:24;;;;;;;5.60;3.43;;;14.30;95.40;;;;;;5076572;28;20273;-48
2022/04/22 08:41:10;;;;;;;4.47;3.80;;;14.30;95.70;;;;;;5082050;28;20306;-51
2022/04/22 08:43:59;;;;;;;4.73;3.60;;;14.70;94.90;;;;;;5081462;28;20280;-57
2022/04/22 08:49:58;;;;;;;4.77;4.17;;;14.90;94.70;;;;;;5082239;28;20271;-48
2022/04/22 08:52:56;;;;;;;4.50;3.87;;;15.30;93.90;;;;;;5082295;28;20190;-57
2022/04/22 08:55:43;;;;;;;6.07;4.03;;;15.30;93.70;;;;;;5081165;28;20276;-62
2022/04/22 08:58:29;;;;;;;3.67;3.33;;;15.20;93.80;;;;;;5077757;28;20264;-69
2022/04/22 09:01:13;;;;;;;4.20;3.77;;;15.30;93.80;;;;;;5081440;28;20255;-53
2022/04/22 09:03:58;;;;;;;5.93;3.40;;;15.40;93.30;;;;;;5080009;28;20263;-51
2022/04/22 09:06:45;;;;;;;4.00;3.60;;;15.50;93.10;;;;;;5080182;28;20332;-57
2022/04/22 09:09:30;;;;;;;4.20;3.80;;;15.80;93.00;;;;;;5081512;28;20287;-69
2022/04/22 09:12:14;;;;;;;4.00;3.60;;;15.60;93.30;;;;;;5078370;28;20195;-55
2022/04/22 09:14:59;;;;;;;4.17;3.47;;;15.90;92.50;;;;;;5081366;28;20215;-57
2022/04/22 09:17:43;;;;;;;5.07;4.03;;;15.90;92.40;;;;;;5076934;28;20338;-56
2022/04/22 09:20:30;;;;;;;4.40;4.00;;;16.20;91.50;;;;;;5079903;28;20754;-50
2022/04/22 09:23:35;;;;;;;5.10;3.83;;;16.30;91.50;;;;;;5081495;28;20200;-59
2022/04/22 09:26:25;;;;;;;4.33;3.17;;;17.10;90.60;;;;;;5078786;28;20188;-67
2022/04/22 09:29:12;;;;;;;3.53;3.10;;;17.30;89.70;;;;;;5079162;28;20612;-55
2022/04/22 09:31:57;;;;;;;5.73;4.00;;;18.00;88.90;;;;;;5082076;28;20187;-52
2022/04/22 09:34:42;;;;;;;3.53;3.23;;;18.40;86.90;;;;;;5080724;28;20242;-50
2022/04/22 09:43:53;;;;;;;4.25;3.85;;;18.90;84.30;;;;;;5080788;28;20212;-62
2022/04/22 09:46:37;;;;;;;5.07;4.00;;;19.70;81.60;;;;;;5079334;28;20228;-62
2022/04/22 09:49:43;;;;;;;5.47;4.25;;;19.50;81.50;;;;;;5080361;28;20192;-50
2022/04/22 09:52:34;;;;;;;10.10;7.25;;;19.60;80.60;;;;;;5079366;28;20193;-62
2022/04/22 09:55:21;;;;;;;11.15;6.43;;;19.70;80.40;;;;;;5079916;28;20197;-58
2022/04/22 09:58:06;;;;;;;7.20;5.55;;;20.90;77.50;;;;;;5074281;28;20216;-55
2022/04/22 10:00:59;;;;;;;4.60;4.20;;;21.60;75.50;;;;;;5079879;28;20196;-54
2022/04/22 10:03:43;;;;;;;6.70;5.78;;;21.00;73.80;;;;;;5092485;28;20189;-68
2022/04/22 10:06:27;;;;;;;5.00;4.00;;;20.70;75.20;;;;;;5080516;28;20235;-64
2022/04/22 10:09:16;;;;;;;6.18;5.03;;;20.40;75.10;;;;;;5077089;28;20189;-64
2022/04/22 10:12:08;;;;;;;4.30;3.03;;;20.50;74.10;;;;;;5079447;28;20185;-65
2022/04/22 10:14:57;;;;;;;3.55;3.20;;;20.00;73.70;;;;;;5093342;28;20283;-67
2022/04/22 10:17:44;;;;;;;11.70;6.57;;;19.90;74.90;;;;;;5075167;28;20184;-65
2022/04/22 10:20:29;;;;;;;7.40;5.25;;;20.90;73.50;;;;;;5076525;28;20201;-52
2022/04/22 10:23:14;;;;;;;11.93;8.43;;;21.40;72.10;;;;;;5078033;28;20185;-52
2022/04/22 10:26:00;;;;;;;7.28;5.07;;;21.50;71.10;;;;;;5077355;28;20193;-57
2022/04/22 10:28:46;;;;;;;4.70;4.10;;;20.50;72.90;;;;;;5074344;28;20239;-63
2022/04/22 10:31:31;;;;;;;5.20;3.15;;;19.80;74.20;;;;;;5079547;28;20235;-53
2022/04/22 10:34:16;;;;;;;4.82;4.30;;;20.30;73.90;;;;;;5078981;28;20262;-51
2022/04/22 10:37:00;;;;;;;3.90;3.50;;;20.90;73.10;;;;;;5077309;28;20323;-54
2022/04/22 10:39:52;;;;;;;2.63;2.53;;;20.40;72.10;;;;;;5083072;28;20207;-53
2022/04/22 10:42:38;;;;;;;8.00;5.53;;;21.00;71.50;;;;;;5081394;28;20239;-50
2022/04/22 10:48:29;;;;;;;3.53;3.22;;;21.10;69.40;;;;;;5076456;28;20279;-56
2022/04/22 10:51:14;;;;;;;3.72;2.85;;;19.90;72.00;;;;;;5080455;28;20358;-54
2022/04/22 10:53:58;;;;;;;4.07;3.10;;;19.50;73.30;;;;;;5083588;28;20189;-53
2022/04/22 10:56:44;;;;;;;2.88;2.67;;;20.10;73.10;;;;;;5081642;28;20185;-61
2022/04/22 10:59:32;;;;;;;2.80;2.60;;;21.30;70.10;;;;;;5084233;28;20224;-53
2022/04/22 11:02:35;;;;;;;6.55;4.22;;;22.50;68.60;;;;;;5084920;28;20243;-56
2022/04/22 11:05:34;;;;;;;5.53;3.35;;;23.20;66.10;;;;;;5084226;28;20232;-55
2022/04/22 11:08:26;;;;;;;2.70;2.42;;;24.00;64.50;;;;;;5079674;28;20189;-56
2022/04/22 11:11:13;;;;;;;5.60;4.32;;;23.40;64.10;;;;;;5084666;28;20228;-48
2022/04/22 11:13:58;;;;;;;4.18;3.55;;;23.10;65.00;;;;;;5084005;28;20197;-51
2022/04/22 11:16:42;;;;;;;7.70;4.38;;;22.90;65.80;;;;;;5082693;28;20230;-57
2022/04/22 11:19:27;;;;;;;5.00;3.42;;;23.40;65.00;;;;;;5082797;28;20200;-55
2022/04/22 11:22:16;;;;;;;4.38;4.00;;;23.20;65.00;;;;;;5083340;28;20196;-55
2022/04/22 11:25:00;;;;;;;3.00;2.80;;;22.70;65.40;;;;;;5084526;28;20189;-70
2022/04/22 11:27:45;;;;;;;6.10;5.50;;;23.30;64.30;;;;;;5078698;28;20243;-64
2022/04/22 11:30:32;;;;;;;5.22;4.55;;;24.40;62.50;;;;;;5084115;28;20374;-67
2022/04/22 11:33:25;;;;;;;3.83;3.20;;;24.40;62.00;;;;;;5085360;28;20197;-66
2022/04/22 11:36:09;;;;;;;7.22;5.20;;;23.90;63.10;;;;;;5084122;28;20204;-69
2022/04/22 11:38:55;;;;;;;2.70;2.60;;;24.70;62.60;;;;;;5079010;28;20231;-50
2022/04/22 11:42:01;;;;;;;3.22;3.00;;;24.60;61.60;;;;;;5085311;28;20212;-56
2022/04/22 11:45:05;;;;;;;4.45;4.05;;;24.10;60.90;;;;;;5080573;28;20192;-56
2022/04/22 11:47:50;;;;;;;19.35;12.07;;;23.50;63.00;;;;;;5077574;28;20203;-49
2022/04/22 11:50:39;;;;;;;12.75;7.10;;;23.80;62.20;;;;;;5083691;28;20261;-56
2022/04/22 11:53:32;;;;;;;13.80;7.80;;;24.40;62.40;;;;;;5083534;28;20229;-62
2022/04/22 11:56:21;;;;;;;17.30;10.57;;;25.60;60.10;;;;;;5082776;28;20216;-48
2022/04/22 11:59:06;;;;;;;6.97;3.53;;;27.20;57.80;;;;;;5078477;28;20272;-57
2022/04/22 12:08:00;;;;;;;3.33;2.80;;;26.70;57.80;;;;;;5076510;28;20192;-49
2022/04/22 12:10:46;;;;;;;2.92;2.72;;;27.90;55.60;;;;;;5080007;28;20201;-56
2022/04/22 12:13:31;;;;;;;3.05;2.85;;;27.00;57.10;;;;;;5080221;28;20262;-66
2022/04/22 12:16:19;;;;;;;3.45;3.15;;;24.90;59.30;;;;;;5080739;28;20232;-66
2022/04/22 12:19:08;;;;;;;3.10;2.90;;;25.10;58.70;;;;;;5077195;28;20208;-57
2022/04/22 12:21:55;;;;;;;3.17;2.92;;;24.80;59.70;;;;;;5079478;28;20247;-66
2022/04/22 12:24:39;;;;;;;2.72;2.58;;;25.50;58.80;;;;;;5081697;28;20193;-69
2022/04/22 12:27:23;;;;;;;2.78;2.58;;;27.60;57.40;;;;;;5076221;28;20687;-59
2022/04/22 12:30:10;;;;;;;2.85;2.72;;;28.40;56.20;;;;;;5082163;28;20282;-70
2022/04/22 12:32:54;;;;;;;2.80;2.17;;;26.80;56.20;;;;;;5083034;28;20197;-61
2022/04/22 12:35:40;;;;;;;2.83;2.60;;;26.30;58.80;;;;;;5080717;28;20268;-66
2022/04/22 12:38:25;;;;;;;3.03;2.83;;;26.50;57.20;;;;;;5077121;28;20228;-58
2022/04/22 12:41:23;;;;;;;3.58;3.28;;;26.20;56.80;;;;;;5080816;28;20240;-63
2022/04/22 12:44:12;;;;;;;3.22;3.03;;;25.40;57.80;;;;;;5080507;28;20189;-56
2022/04/22 12:53:28;;;;;;;3.40;3.10;;;24.80;60.50;;;;;;5079721;28;20204;-66
2022/04/22 12:56:13;;;;;;;3.15;2.95;;;25.20;59.40;;;;;;5081798;28;20193;-54
2022/04/22 12:58:59;;;;;;;4.10;3.70;;;24.20;60.70;;;;;;5077009;28;20254;-70
2022/04/22 13:01:45;;;;;;;3.28;3.08;;;24.50;60.20;;;;;;5081430;28;20262;-73
2022/04/22 13:04:29;;;;;;;3.33;3.03;;;25.00;59.40;;;;;;5082087;28;20286;-50
2022/04/22 13:07:14;;;;;;;3.22;3.03;;;24.60;59.80;;;;;;5079361;28;20239;-49
2022/04/22 13:09:58;;;;;;;4.00;3.45;;;24.90;59.60;;;;;;5079793;28;20208;-51
2022/04/22 13:12:44;;;;;;;3.97;3.40;;;24.50;59.50;;;;;;5082353;28;20206;-52
2022/04/22 13:15:28;;;;;;;4.07;3.00;;;23.40;61.40;;;;;;5082202;28;20221;-46
2022/04/22 13:18:13;;;;;;;6.97;3.40;;;22.60;63.40;;;;;;5076255;28;20197;-51
2022/04/22 13:20:59;;;;;;;3.90;3.50;;;22.30;64.80;;;;;;5080883;28;20267;-56
2022/04/22 13:23:44;;;;;;;4.15;3.55;;;21.50;65.70;;;;;;5078824;28;20256;-52
2022/04/22 13:26:28;;;;;;;3.30;3.00;;;21.30;66.00;;;;;;5078958;28;20239;-51
2022/04/22 13:29:13;;;;;;;4.88;4.38;;;21.90;65.60;;;;;;5077582;28;20266;-64
2022/04/22 13:31:57;;;;;;;4.43;4.00;;;22.60;64.70;;;;;;5079851;28;20250;-58
2022/04/22 13:34:41;;;;;;;4.43;3.50;;;22.30;64.80;;;;;;5081200;28;20220;-47
2022/04/22 13:37:26;;;;;;;5.10;3.78;;;22.50;64.10;;;;;;5073291;28;20196;-66
2022/04/22 13:40:13;;;;;;;3.95;3.53;;;22.00;65.20;;;;;;5080529;28;20232;-69
2022/04/22 13:42:58;;;;;;;3.58;3.28;;;21.60;65.60;;;;;;5081130;28;20188;-69
2022/04/22 13:54:53;;;;;;;5.78;3.67;;;23.00;64.20;;;;;;5082017;28;20274;-70
2022/04/22 13:57:38;;;;;;;3.60;3.30;;;23.00;62.90;;;;;;5074905;28;20401;-61
2022/04/22 14:00:23;;;;;;;6.95;4.07;;;22.10;64.50;;;;;;5080339;28;20236;-63
2022/04/22 14:03:07;;;;;;;3.92;3.63;;;21.30;65.40;;;;;;5079613;28;20196;-50
2022/04/22 14:05:51;;;;;;;4.30;3.90;;;20.40;67.70;;;;;;5079612;28;20247;-55
2022/04/22 14:08:35;;;;;;;3.67;3.38;;;20.60;68.20;;;;;;5073281;28;20195;-52
2022/04/22 14:11:20;;;;;;;4.43;3.38;;;20.90;67.80;;;;;;5080611;28;20271;-62
2022/04/22 14:14:04;;;;;;;4.95;4.10;;;20.50;68.80;;;;;;5085807;28;20192;-64
2022/04/22 14:16:50;;;;;;;5.53;3.80;;;20.70;67.70;;;;;;5083969;28;20193;-57
2022/04/22 14:19:35;;;;;;;4.83;4.07;;;20.40;69.00;;;;;;5081586;28;20203;-55
2022/04/22 14:22:19;;;;;;;3.70;3.40;;;19.80;69.90;;;;;;5085333;28;20263;-52
2022/04/22 14:25:05;;;;;;;4.00;3.60;;;19.60;69.90;;;;;;5082211;28;20196;-60
2022/04/22 14:27:49;;;;;;;5.33;3.77;;;19.50;70.60;;;;;;5079277;28;20227;-57
2022/04/22 14:30:33;;;;;;;6.33;3.20;;;19.40;70.90;;;;;;5083007;28;20626;-52
2022/04/22 14:33:17;;;;;;;3.63;3.20;;;20.30;68.70;;;;;;5084509;28;20185;-61
2022/04/22 14:36:02;;;;;;;5.37;3.90;;;19.90;69.80;;;;;;5084094;28;20276;-53
2022/04/22 14:38:47;;;;;;;5.63;3.90;;;19.60;70.40;;;;;;5080109;28;20196;-60
2022/04/22 14:41:31;;;;;;;6.27;3.43;;;19.50;70.60;;;;;;5084124;28;20224;-60
2022/04/22 14:44:16;;;;;;;3.40;3.10;;;19.50;71.40;;;;;;5081620;28;20299;-59
2022/04/22 14:47:01;;;;;;;4.43;3.47;;;19.90;70.50;;;;;;5083005;28;20200;-59
2022/04/22 14:49:48;;;;;;;3.80;3.37;;;19.50;70.90;;;;;;5082628;28;20252;-52
2022/04/22 14:52:33;;;;;;;5.47;3.97;;;19.30;71.40;;;;;;5084269;28;20194;-50
2022/04/22 14:55:18;;;;;;;4.27;3.87;;;19.00;72.20;;;;;;5083824;28;20209;-50
2022/04/22 14:58:03;;;;;;;4.20;3.80;;;18.80;72.40;;;;;;5073439;28;20258;-51
2022/04/22 15:00:47;;;;;;;3.87;3.43;;;18.50;73.60;;;;;;5082364;28;20278;-53
2022/04/22 15:03:31;;;;;;;3.80;3.50;;;17.90;74.60;;;;;;5084727;28;20195;-69
2022/04/22 15:06:15;;;;;;;5.30;3.80;;;17.70;75.40;;;;;;5084461;28;20240;-60
2022/04/22 15:09:02;;;;;;;4.87;3.50;;;17.60;75.70;;;;;;5080465;28;20256;-68
2022/04/22 15:11:46;;;;;;;3.60;3.30;;;17.20;76.10;;;;;;5084631;28;20234;-63
2022/04/22 15:14:31;;;;;;;7.80;4.30;;;17.10;76.70;;;;;;5084195;28;20347;-64
2022/04/22 15:17:15;;;;;;;5.10;3.20;;;17.00;77.40;;;;;;5077501;28;20241;-69
2022/04/22 15:26:06;;;;;;;4.27;3.60;;;16.80;78.00;;;;;;5084179;28;20250;-62
2022/04/22 15:28:50;;;;;;;5.07;3.90;;;16.60;78.70;;;;;;5077940;28;20333;-53
2022/04/22 15:31:35;;;;;;;4.23;3.30;;;16.50;78.70;;;;;;5082779;28;20202;-53
2022/04/22 15:34:20;;;;;;;4.83;4.10;;;16.40;79.00;;;;;;5083028;28;20206;-54
2022/04/22 15:37:04;;;;;;;10.77;5.50;;;16.30;79.90;;;;;;5081347;28;20227;-62
2022/04/22 15:39:49;;;;;;;7.20;4.83;;;15.90;81.20;;;;;;5081531;28;20271;-62
2022/04/22 15:42:33;;;;;;;3.73;3.17;;;16.00;80.90;;;;;;5083446;28;20197;-53
2022/04/22 15:45:18;;;;;;;11.10;6.20;;;15.70;81.40;;;;;;5082389;28;20192;-62
2022/04/22 15:48:03;;;;;;;6.63;4.67;;;15.70;82.00;;;;;;5079310;28;20235;-65
2022/04/22 15:50:47;;;;;;;8.47;6.50;;;15.90;81.50;;;;;;5082408;28;20204;-58
2022/04/22 15:53:32;;;;;;;18.30;8.87;;;16.00;81.80;;;;;;5082477;28;20251;-54
2022/04/22 15:56:16;;;;;;;5.43;4.43;;;16.00;81.40;;;;;;5074323;28;20196;-56
2022/04/22 15:59:01;;;;;;;5.93;4.57;;;15.80;81.50;;;;;;5078881;28;20208;-49